createdAt,value
2019-03-12T00:02:13.868Z,0.50
2019-03-12T00:04:42.853Z,3.30
2019-03-12T00:07:11.434Z,0.73
2019-03-12T00:09:40.681Z,0.80
2019-03-12T00:12:09.227Z,0.40
2019-03-12T00:14:37.342Z,0.67
2019-03-12T00:17:06.338Z,0.83
2019-03-12T00:19:34.624Z,0.73
2019-03-12T00:22:03.005Z,0.70
2019-03-12T00:24:31.293Z,0.57
2019-03-12T00:27:00.015Z,0.50
2019-03-12T00:29:28.493Z,0.50
2019-03-12T00:31:57.044Z,0.33
2019-03-12T00:34:25.888Z,0.40
2019-03-12T00:36:54.903Z,0.33
2019-03-12T00:39:23.601Z,0.50
2019-03-12T00:41:52.412Z,0.40
2019-03-12T00:44:21.267Z,0.40
2019-03-12T00:46:49.869Z,0.40
2019-03-12T00:49:18.312Z,0.50
2019-03-12T00:51:46.564Z,0.50
2019-03-12T00:54:15.337Z,0.40
2019-03-12T00:56:43.912Z,0.40
2019-03-12T00:59:12.612Z,0.27
2019-03-12T01:01:41.332Z,0.30
2019-03-12T01:04:09.808Z,0.47
2019-03-12T01:06:38.643Z,0.50
2019-03-12T01:09:07.644Z,0.30
2019-03-12T01:11:36.136Z,0.20
2019-03-12T01:14:04.528Z,0.30
2019-03-12T01:16:32.775Z,0.30
2019-03-12T01:19:01.296Z,0.50
2019-03-12T01:21:29.477Z,0.20
2019-03-12T01:23:58.051Z,0.30
2019-03-12T01:26:26.320Z,0.20
2019-03-12T01:28:54.832Z,0.30
2019-03-12T01:31:23.227Z,0.20
2019-03-12T01:33:51.957Z,0.17
2019-03-12T01:36:21.759Z,0.30
2019-03-12T01:38:50.455Z,0.30
2019-03-12T01:41:19.108Z,0.20
2019-03-12T01:43:47.982Z,0.20
2019-03-12T01:46:16.720Z,0.40
2019-03-12T01:48:45.137Z,0.10
2019-03-12T01:51:13.571Z,0.40
2019-03-12T01:53:41.976Z,0.20
2019-03-12T01:56:10.848Z,0.17
2019-03-12T01:58:38.981Z,0.20
2019-03-12T02:01:07.674Z,0.70
2019-03-12T02:03:35.870Z,0.50
2019-03-12T02:06:04.567Z,0.30
2019-03-12T02:08:32.856Z,0.10
2019-03-12T02:11:02.425Z,0.20
2019-03-12T02:13:30.536Z,0.20
2019-03-12T02:15:59.148Z,0.20
2019-03-12T02:18:27.348Z,0.20
2019-03-12T02:20:56.111Z,0.10
2019-03-12T02:23:24.823Z,0.33
2019-03-12T02:25:53.328Z,0.60
2019-03-12T02:28:22.020Z,0.20
2019-03-12T02:30:50.588Z,0.40
2019-03-12T02:33:19.029Z,0.40
2019-03-12T02:35:47.487Z,0.23
2019-03-12T02:38:16.263Z,1.00
2019-03-12T02:40:44.562Z,0.60
2019-03-12T02:43:13.455Z,0.20
2019-03-12T02:45:42.210Z,0.43
2019-03-12T02:48:10.620Z,0.20
2019-03-12T02:50:39.269Z,0.50
2019-03-12T02:53:08.066Z,0.23
2019-03-12T02:55:36.678Z,0.57
2019-03-12T02:58:05.391Z,0.20
2019-03-12T03:00:34.024Z,0.37
2019-03-12T03:03:02.432Z,0.20
2019-03-12T03:05:33.401Z,0.50
2019-03-12T03:08:04.628Z,0.30
2019-03-12T03:10:33.076Z,0.50
2019-03-12T03:13:01.372Z,0.40
2019-03-12T03:15:37.922Z,0.37
2019-03-12T03:18:06.344Z,0.30
2019-03-12T03:20:34.629Z,0.60
2019-03-12T03:23:03.447Z,0.40
2019-03-12T03:25:32.123Z,0.77
2019-03-12T03:28:00.237Z,0.50
2019-03-12T03:30:28.476Z,0.40
2019-03-12T03:32:56.866Z,0.60
2019-03-12T03:35:25.576Z,0.80
2019-03-12T03:37:54.138Z,0.57
2019-03-12T03:40:22.690Z,0.47
2019-03-12T03:42:51.325Z,0.40
2019-03-12T03:45:20.062Z,0.30
2019-03-12T03:47:48.599Z,0.70
2019-03-12T03:50:18.376Z,0.30
2019-03-12T03:52:47.239Z,0.47
2019-03-12T03:55:15.941Z,0.50
2019-03-12T03:57:44.262Z,0.87
2019-03-12T04:00:16.930Z,0.40
2019-03-12T04:02:45.236Z,0.20
2019-03-12T04:05:13.958Z,0.50
2019-03-12T04:07:42.771Z,0.70
2019-03-12T04:10:12.373Z,3.10
2019-03-12T04:12:41.282Z,2.10
2019-03-12T04:15:09.984Z,0.60
2019-03-12T04:17:38.830Z,0.83
2019-03-12T04:20:07.649Z,0.50
2019-03-12T04:22:36.377Z,0.50
2019-03-12T04:25:04.976Z,0.47
2019-03-12T04:27:33.084Z,1.13
2019-03-12T04:30:01.352Z,0.50
2019-03-12T04:32:29.571Z,0.63
2019-03-12T04:34:57.768Z,0.33
2019-03-12T04:37:26.041Z,0.17
2019-03-12T04:39:54.148Z,0.40
2019-03-12T04:42:22.252Z,0.30
2019-03-12T04:44:50.464Z,0.50
2019-03-12T04:47:18.890Z,0.37
2019-03-12T04:49:46.998Z,0.60
2019-03-12T04:52:15.640Z,0.37
2019-03-12T04:54:43.739Z,0.37
2019-03-12T04:57:12.364Z,0.40
2019-03-12T04:59:41.720Z,0.30
2019-03-12T05:02:11.334Z,0.40
2019-03-12T05:04:39.980Z,0.90
2019-03-12T05:07:09.035Z,0.20
2019-03-12T05:09:38.029Z,0.30
2019-03-12T05:12:06.260Z,0.70
2019-03-12T05:14:34.568Z,0.47
2019-03-12T05:17:04.526Z,0.50
2019-03-12T05:19:32.873Z,0.50
2019-03-12T05:22:00.999Z,0.57
2019-03-12T05:24:29.293Z,0.73
2019-03-12T05:26:57.396Z,0.70
2019-03-12T05:29:25.700Z,0.70
2019-03-12T05:31:53.839Z,0.50
2019-03-12T05:34:23.371Z,0.50
2019-03-12T05:36:52.036Z,0.50
2019-03-12T05:39:20.673Z,0.50
2019-03-12T05:41:49.012Z,0.53
2019-03-12T05:44:17.355Z,0.70
2019-03-12T05:46:45.749Z,0.50
2019-03-12T05:49:14.485Z,0.90
2019-03-12T05:51:42.617Z,0.90
2019-03-12T05:54:10.881Z,1.17
2019-03-12T05:56:39.220Z,2.97
2019-03-12T05:59:07.983Z,0.87
2019-03-12T06:01:36.285Z,0.80
2019-03-12T06:04:04.834Z,0.60
2019-03-12T06:06:33.046Z,0.80
2019-03-12T06:09:01.625Z,0.97
2019-03-12T06:11:31.657Z,0.80
2019-03-12T06:14:00.128Z,0.60
2019-03-12T06:16:28.524Z,1.00
2019-03-12T06:18:56.796Z,1.33
2019-03-12T06:21:25.207Z,0.50
2019-03-12T06:23:53.660Z,0.83
2019-03-12T06:26:21.925Z,0.60
2019-03-12T06:28:50.093Z,3.70
2019-03-12T06:31:50.773Z,1.07
2019-03-12T06:34:51.716Z,1.97
2019-03-12T06:37:42.519Z,1.80
2019-03-12T06:40:49.011Z,0.90
2019-03-12T06:43:22.265Z,0.67
2019-03-12T06:46:10.637Z,1.30
2019-03-12T06:48:49.528Z,1.20
2019-03-12T06:51:37.805Z,1.03
2019-03-12T06:54:20.677Z,2.67
2019-03-12T06:57:08.600Z,2.53
2019-03-12T06:59:54.028Z,1.50
2019-03-12T07:02:48.424Z,2.23
2019-03-12T07:05:35.542Z,3.43
2019-03-12T07:08:26.654Z,1.93
2019-03-12T07:11:20.530Z,1.00
2019-03-12T07:14:24.236Z,1.20
2019-03-12T07:17:21.072Z,1.30
2019-03-12T07:20:15.062Z,2.00
2019-03-12T07:23:01.264Z,0.87
2019-03-12T07:25:52.065Z,1.47
2019-03-12T07:28:34.865Z,5.30
2019-03-12T07:31:21.448Z,1.03
2019-03-12T07:34:12.802Z,1.20
2019-03-12T07:37:09.750Z,0.97
2019-03-12T07:40:09.467Z,0.70
2019-03-12T07:42:47.445Z,0.67
2019-03-12T07:45:30.180Z,0.90
2019-03-12T07:48:16.891Z,0.80
2019-03-12T07:50:57.344Z,0.73
2019-03-12T07:53:59.517Z,0.77
2019-03-12T07:56:43.320Z,0.63
2019-03-12T07:59:36.348Z,1.47
2019-03-12T08:02:39.158Z,6.30
2019-03-12T08:05:29.807Z,0.83
2019-03-12T08:08:36.279Z,0.87
2019-03-12T08:11:24.174Z,0.70
2019-03-12T08:14:11.130Z,0.93
2019-03-12T08:17:17.293Z,0.70
2019-03-12T08:20:10.557Z,0.87
2019-03-12T08:23:09.437Z,0.73
2019-03-12T08:25:57.079Z,1.20
2019-03-12T08:28:44.177Z,1.27
2019-03-12T08:31:37.442Z,0.97
2019-03-12T08:34:27.968Z,0.93
2019-03-12T08:37:14.767Z,1.10
2019-03-12T08:40:15.097Z,1.20
2019-03-12T08:43:05.552Z,1.17
2019-03-12T08:46:00.084Z,1.93
2019-03-12T08:48:50.355Z,1.20
2019-03-12T08:51:35.751Z,0.97
2019-03-12T08:54:11.172Z,1.80
2019-03-12T08:56:59.032Z,1.10
2019-03-12T08:59:48.607Z,0.90
2019-03-12T09:02:34.180Z,0.90
2019-03-12T09:05:31.808Z,1.13
2019-03-12T09:08:19.790Z,1.10
2019-03-12T09:10:59.929Z,0.97
2019-03-12T09:13:54.028Z,0.30
2019-03-12T09:16:40.843Z,0.70
2019-03-12T09:19:28.877Z,1.00
2019-03-12T09:22:19.990Z,0.50
2019-03-12T09:25:11.350Z,1.40
2019-03-12T09:28:08.978Z,0.98
2019-03-12T09:30:55.595Z,1.27
2019-03-12T09:33:40.649Z,1.50
2019-03-12T09:36:25.456Z,1.10
2019-03-12T09:39:07.888Z,1.70
2019-03-12T09:41:55.297Z,0.73
2019-03-12T09:44:49.836Z,0.60
2019-03-12T09:47:30.545Z,1.95
2019-03-12T09:50:04.592Z,0.50
2019-03-12T09:53:01.566Z,0.63
2019-03-12T09:55:51.036Z,1.10
2019-03-12T09:58:39.984Z,0.87
2019-03-12T10:01:30.706Z,1.00
2019-03-12T10:04:24.778Z,0.70
2019-03-12T10:07:16.003Z,0.60
2019-03-12T10:09:56.440Z,0.87
2019-03-12T10:12:45.331Z,1.20
2019-03-12T10:15:33.050Z,1.37
2019-03-12T10:18:23.896Z,0.70
2019-03-12T10:21:00.241Z,1.13
2019-03-12T10:23:38.824Z,0.73
2019-03-12T10:26:29.224Z,0.80
2019-03-12T10:29:25.816Z,0.80
2019-03-12T10:32:11.128Z,0.70
2019-03-12T10:35:11.169Z,1.43
2019-03-12T10:38:11.495Z,3.33
2019-03-12T10:40:57.385Z,0.60
2019-03-12T10:43:43.891Z,1.70
2019-03-12T10:46:47.595Z,1.10
2019-03-12T10:49:16.295Z,1.40
2019-03-12T10:51:45.021Z,1.20
2019-03-12T10:54:13.692Z,1.20
2019-03-12T10:56:42.953Z,0.77
2019-03-12T10:59:11.668Z,1.03
2019-03-12T11:01:40.825Z,0.70
2019-03-12T11:04:09.626Z,0.50
2019-03-12T11:06:38.128Z,0.40
2019-03-12T11:09:07.288Z,0.77
2019-03-12T11:11:37.405Z,0.90
2019-03-12T11:14:07.048Z,0.63
2019-03-12T11:16:35.387Z,0.70
2019-03-12T11:19:06.965Z,0.73
2019-03-12T11:21:35.607Z,1.20
2019-03-12T11:24:04.478Z,0.60
2019-03-12T11:26:33.058Z,0.70
2019-03-12T11:29:01.360Z,1.20
2019-03-12T11:31:30.333Z,0.70
2019-03-12T11:33:58.653Z,1.00
2019-03-12T11:36:27.067Z,0.80
2019-03-12T11:38:55.835Z,0.73
2019-03-12T11:41:24.596Z,0.60
2019-03-12T11:43:53.621Z,0.63
2019-03-12T11:46:22.448Z,0.87
2019-03-12T11:48:51.500Z,0.67
2019-03-12T11:51:21.044Z,0.47
2019-03-12T11:53:49.633Z,0.63
2019-03-12T11:56:18.112Z,1.20
2019-03-12T11:58:46.981Z,0.90
2019-03-12T12:01:16.005Z,0.80
2019-03-12T12:03:44.626Z,0.80
2019-03-12T12:06:13.844Z,1.10
2019-03-12T12:08:42.548Z,0.93
2019-03-12T12:11:13.054Z,0.93
2019-03-12T12:13:41.678Z,0.80
2019-03-12T12:16:10.423Z,1.70
2019-03-12T12:18:39.416Z,1.73
2019-03-12T12:21:07.705Z,1.45
2019-03-12T12:23:36.053Z,0.90
2019-03-12T12:26:04.859Z,1.23
2019-03-12T12:28:33.852Z,1.70
2019-03-12T12:31:02.359Z,1.10
2019-03-12T12:33:31.224Z,0.57
2019-03-12T12:36:00.056Z,0.50
2019-03-12T12:38:28.239Z,0.97
2019-03-12T12:40:56.778Z,1.60
2019-03-12T12:43:25.316Z,8.00
2019-03-12T12:45:53.783Z,21.40
2019-03-12T12:48:22.728Z,3.40
2019-03-12T12:51:02.611Z,2.00
2019-03-12T12:53:21.944Z,2.50
2019-03-12T12:55:51.595Z,8.67
2019-03-12T12:58:21.112Z,4.17
2019-03-12T13:00:49.421Z,36.20
2019-03-12T13:03:17.904Z,23.07
2019-03-12T13:05:46.918Z,3.37
2019-03-12T13:08:15.610Z,4.50
2019-03-12T13:10:44.184Z,4.60
2019-03-12T13:13:12.905Z,2.27
2019-03-12T13:15:41.651Z,2.90
2019-03-12T13:18:10.240Z,7.10
2019-03-12T13:20:38.588Z,3.20
2019-03-12T13:23:32.281Z,4.00
2019-03-12T13:26:00.727Z,7.07
2019-03-12T13:28:28.947Z,4.13
2019-03-12T13:30:57.884Z,2.50
2019-03-12T13:33:26.474Z,1.83
2019-03-12T13:35:55.289Z,2.45
2019-03-12T13:38:25.741Z,1.60
2019-03-12T13:40:54.178Z,1.82
2019-03-12T13:43:23.352Z,4.20
2019-03-12T13:45:52.771Z,2.37
2019-03-12T13:48:21.362Z,1.52
2019-03-12T13:50:49.712Z,3.52
2019-03-12T13:53:18.046Z,5.05
2019-03-12T13:55:46.637Z,2.67
2019-03-12T13:58:15.502Z,6.50
2019-03-12T14:00:43.957Z,6.22
2019-03-12T14:03:12.629Z,5.00
2019-03-12T14:05:41.184Z,4.30
2019-03-12T14:08:09.856Z,2.67
2019-03-12T14:10:39.432Z,11.08
2019-03-12T14:13:09.137Z,9.28
2019-03-12T14:15:38.164Z,3.98
2019-03-12T14:18:06.985Z,1.62
2019-03-12T14:20:45.507Z,1.85
2019-03-12T14:23:19.092Z,1.47
2019-03-12T14:25:48.664Z,1.95
2019-03-12T14:28:17.919Z,2.10
2019-03-12T14:30:47.366Z,1.45
2019-03-12T14:33:16.538Z,1.80
2019-03-12T14:35:51.378Z,2.30
2019-03-12T14:38:16.811Z,2.30
2019-03-12T14:40:47.228Z,2.72
2019-03-12T14:43:16.712Z,1.30
2019-03-12T14:45:47.477Z,1.90
2019-03-12T14:48:34.312Z,1.07
2019-03-12T14:51:05.720Z,1.40
2019-03-12T14:53:34.632Z,1.40
2019-03-12T14:56:04.580Z,1.37
2019-03-12T14:58:34.225Z,6.60
2019-03-12T15:01:03.547Z,5.63
2019-03-12T15:03:32.746Z,2.83
2019-03-12T15:06:01.438Z,1.20
2019-03-12T15:08:31.210Z,3.63
2019-03-12T15:11:00.114Z,1.90
2019-03-12T15:13:28.973Z,2.87
2019-03-12T15:15:58.459Z,2.20
2019-03-12T15:18:27.300Z,3.30
2019-03-12T15:20:56.376Z,1.70
2019-03-12T15:23:25.261Z,1.30
2019-03-12T15:25:54.293Z,1.83
2019-03-12T15:28:23.112Z,2.30
2019-03-12T15:30:51.714Z,2.73
2019-03-12T15:33:19.936Z,1.93
2019-03-12T15:35:48.267Z,2.07
2019-03-12T15:38:16.921Z,2.23
2019-03-12T15:40:45.284Z,1.80
2019-03-12T15:43:13.986Z,1.90
2019-03-12T15:45:43.269Z,1.53
2019-03-12T15:48:11.737Z,1.60
2019-03-12T15:50:40.904Z,1.80
2019-03-12T15:53:09.104Z,1.40
2019-03-12T15:55:37.928Z,2.10
2019-03-12T15:58:06.716Z,3.50
2019-03-12T16:00:35.650Z,1.30
2019-03-12T16:03:04.040Z,1.23
2019-03-12T16:05:32.621Z,3.47
2019-03-12T16:08:01.463Z,3.07
2019-03-12T16:10:30.057Z,2.33
2019-03-12T16:12:58.573Z,1.60
2019-03-12T16:15:27.516Z,2.60
2019-03-12T16:17:56.182Z,2.23
2019-03-12T16:20:24.481Z,3.30
2019-03-12T16:22:53.271Z,3.67
2019-03-12T16:25:22.261Z,3.30
2019-03-12T16:27:51.253Z,0.83
2019-03-12T16:30:19.869Z,2.73
2019-03-12T16:32:48.364Z,2.07
2019-03-12T16:35:16.857Z,19.40
2019-03-12T16:37:46.485Z,46.23
2019-03-12T16:40:15.297Z,5.87
2019-03-12T16:42:43.719Z,11.37
2019-03-12T16:45:12.408Z,14.57
2019-03-12T16:47:41.358Z,15.23
2019-03-12T16:50:10.317Z,16.87
2019-03-12T16:52:38.564Z,6.47
2019-03-12T16:55:06.868Z,4.40
2019-03-12T16:57:37.211Z,5.37
2019-03-12T17:00:08.638Z,13.03
2019-03-12T17:02:40.718Z,12.27
2019-03-12T17:05:09.162Z,10.17
2019-03-12T17:07:40.672Z,6.63
2019-03-12T17:10:09.918Z,11.20
2019-03-12T17:12:39.353Z,9.53
2019-03-12T17:15:09.688Z,7.70
2019-03-12T17:17:38.072Z,6.27
2019-03-12T17:20:07.428Z,5.47
2019-03-12T17:22:36.050Z,3.00
2019-03-12T17:25:05.108Z,12.37
2019-03-12T17:27:34.822Z,8.33
2019-03-12T17:30:04.072Z,5.50
2019-03-12T17:32:34.574Z,6.87
2019-03-12T17:35:03.836Z,7.20
2019-03-12T17:37:32.786Z,9.17
2019-03-12T17:40:01.535Z,10.93
2019-03-12T17:42:31.936Z,13.18
2019-03-12T17:45:00.797Z,5.87
2019-03-12T17:47:29.477Z,11.13
2019-03-12T17:49:58.163Z,9.40
2019-03-12T17:52:27.504Z,8.23
2019-03-12T17:54:56.027Z,8.60
2019-03-12T17:57:24.412Z,11.30
2019-03-12T17:59:52.852Z,6.90
2019-03-12T18:02:21.606Z,10.87
2019-03-12T18:04:50.209Z,12.43
2019-03-12T18:07:19.412Z,17.60
2019-03-12T18:09:48.633Z,5.50
2019-03-12T18:12:17.568Z,5.37
2019-03-12T18:14:46.224Z,4.87
2019-03-12T18:17:14.777Z,4.27
2019-03-12T18:19:43.551Z,4.40
2019-03-12T18:22:11.913Z,3.83
2019-03-12T18:24:40.266Z,3.33
2019-03-12T18:27:08.725Z,3.23
2019-03-12T18:29:37.415Z,3.80
2019-03-12T18:32:06.125Z,3.90
2019-03-12T18:34:36.045Z,3.83
2019-03-12T18:37:04.731Z,6.70
2019-03-12T18:39:33.436Z,5.10
2019-03-12T18:42:02.101Z,3.30
2019-03-12T18:44:30.689Z,3.40
2019-03-12T18:46:59.473Z,3.50
2019-03-12T18:49:28.060Z,3.33
2019-03-12T18:51:56.685Z,2.93
2019-03-12T18:54:25.129Z,2.80
2019-03-12T18:56:53.853Z,3.40
2019-03-12T18:59:22.640Z,4.40
2019-03-12T19:01:51.032Z,6.00
2019-03-12T19:04:20.360Z,4.90
2019-03-12T19:06:48.904Z,7.37
2019-03-12T19:09:17.835Z,6.30
2019-03-12T19:11:48.639Z,6.90
2019-03-12T19:14:17.884Z,7.60
2019-03-12T19:16:46.529Z,6.70
2019-03-12T19:19:15.211Z,5.00
2019-03-12T19:21:43.693Z,4.07
2019-03-12T19:24:12.165Z,3.93
2019-03-12T19:26:41.359Z,3.53
2019-03-12T19:29:13.045Z,2.97
2019-03-12T19:31:47.801Z,4.23
2019-03-12T19:34:31.739Z,4.77
2019-03-12T19:37:00.368Z,3.53
2019-03-12T19:39:29.323Z,7.33
2019-03-12T19:41:58.078Z,9.37
2019-03-12T19:44:26.864Z,4.63
2019-03-12T19:46:55.528Z,4.30
2019-03-12T19:49:24.152Z,4.43
2019-03-12T19:51:52.699Z,3.20
2019-03-12T19:54:23.292Z,5.90
2019-03-12T19:56:51.781Z,4.17
2019-03-12T19:59:20.621Z,4.17
2019-03-12T20:01:49.711Z,4.33
2019-03-12T20:04:18.582Z,4.70
2019-03-12T20:06:47.117Z,6.27
2019-03-12T20:09:20.626Z,4.83
2019-03-12T20:12:08.345Z,4.47
2019-03-12T20:15:08.481Z,4.87
2019-03-12T20:17:56.000Z,4.23
2019-03-12T20:20:53.459Z,4.57
2019-03-12T20:23:44.030Z,6.00
2019-03-12T20:26:31.066Z,4.83
2019-03-12T20:29:18.046Z,4.57
2019-03-12T20:32:15.118Z,4.20
2019-03-12T20:35:05.059Z,3.60
2019-03-12T20:38:07.816Z,5.63
2019-03-12T20:40:59.821Z,14.63
2019-03-12T20:43:47.942Z,4.80
2019-03-12T20:46:41.632Z,27.23
2019-03-12T20:49:28.251Z,14.97
2019-03-12T20:52:26.304Z,19.50
2019-03-12T20:55:12.680Z,11.47
2019-03-12T20:58:00.460Z,6.53
2019-03-12T21:01:04.585Z,4.30
2019-03-12T21:03:44.344Z,4.23
2019-03-12T21:06:31.543Z,4.20
2019-03-12T21:09:36.366Z,3.90
2019-03-12T21:12:26.904Z,4.33
2019-03-12T21:15:12.374Z,4.40
2019-03-12T21:18:03.479Z,4.00
2019-03-12T21:21:01.044Z,7.07
2019-03-12T21:23:50.789Z,4.50
2019-03-12T21:26:39.547Z,5.87
2019-03-12T21:29:31.302Z,3.87
2019-03-12T21:31:59.937Z,4.00
2019-03-12T21:34:28.682Z,4.07
2019-03-12T21:36:57.529Z,4.63
2019-03-12T21:39:25.919Z,4.67
2019-03-12T21:41:55.291Z,4.20
2019-03-12T21:44:24.503Z,4.43
2019-03-12T21:46:54.373Z,3.40
2019-03-12T21:49:22.808Z,3.50
2019-03-12T21:51:51.271Z,2.73
2019-03-12T21:54:19.648Z,2.93
2019-03-12T21:56:48.600Z,2.60
2019-03-12T21:59:17.380Z,2.43
2019-03-12T22:01:46.124Z,2.00
2019-03-12T22:04:14.241Z,1.80
2019-03-12T22:06:42.514Z,2.23
2019-03-12T22:09:14.092Z,2.80
2019-03-12T22:11:42.836Z,3.73
2019-03-12T22:14:12.092Z,2.67
2019-03-12T22:16:40.270Z,2.33
2019-03-12T22:19:08.528Z,2.90
2019-03-12T22:21:45.140Z,2.73
2019-03-12T22:24:19.234Z,2.53
2019-03-12T22:26:47.972Z,2.85
2019-03-12T22:29:22.399Z,3.63
2019-03-12T22:31:50.767Z,2.63
2019-03-12T22:34:19.398Z,2.50
2019-03-12T22:36:48.243Z,2.60
2019-03-12T22:39:16.930Z,3.07
2019-03-12T22:41:45.496Z,3.03
2019-03-12T22:44:14.048Z,3.20
2019-03-12T22:46:42.988Z,3.27
2019-03-12T22:49:11.365Z,3.27
2019-03-12T22:51:39.715Z,3.10
2019-03-12T22:54:08.372Z,2.90
2019-03-12T22:56:37.423Z,3.17
2019-03-12T22:59:07.928Z,2.97
2019-03-12T23:01:55.116Z,3.00
2019-03-12T23:04:42.188Z,2.77
2019-03-12T23:07:28.894Z,3.20
2019-03-12T23:09:58.880Z,3.33
2019-03-12T23:12:29.089Z,3.10
2019-03-12T23:14:59.711Z,2.33
2019-03-12T23:17:30.243Z,2.03
2019-03-12T23:19:59.028Z,2.67
2019-03-12T23:22:28.179Z,1.80
2019-03-12T23:25:00.552Z,1.90
2019-03-12T23:27:29.125Z,2.10
2019-03-12T23:29:57.653Z,1.50
2019-03-12T23:32:25.877Z,1.77
2019-03-12T23:34:54.524Z,1.70
2019-03-12T23:37:22.945Z,1.70
2019-03-12T23:39:51.376Z,1.83
2019-03-12T23:42:19.794Z,1.77
2019-03-12T23:44:49.552Z,2.07
2019-03-12T23:47:18.082Z,1.60
2019-03-12T23:49:46.918Z,1.97
2019-03-12T23:52:15.466Z,1.83
2019-03-12T23:54:43.989Z,1.73
2019-03-12T23:57:12.521Z,1.47
2019-03-12T23:59:40.808Z,1.47
